createdAt,value
2019-03-13T00:01:05.816Z,60.00
2019-03-13T00:04:10.131Z,60.30
2019-03-13T00:07:14.501Z,60.50
2019-03-13T00:10:19.058Z,59.80
2019-03-13T00:13:24.935Z,59.90
2019-03-13T00:16:29.382Z,60.00
2019-03-13T00:19:33.783Z,59.60
2019-03-13T00:22:38.231Z,59.60
2019-03-13T00:25:43.987Z,60.30
2019-03-13T00:28:48.318Z,60.20
2019-03-13T00:31:52.632Z,60.30
2019-03-13T00:34:56.970Z,60.20
2019-03-13T00:38:01.298Z,60.00
2019-03-13T00:41:17.662Z,60.50
2019-03-13T00:44:22.059Z,60.50
2019-03-13T00:47:27.853Z,60.70
2019-03-13T00:50:33.068Z,60.90
2019-03-13T00:53:37.864Z,61.20
2019-03-13T00:56:42.158Z,61.20
2019-03-13T00:59:46.519Z,61.60
2019-03-13T01:02:50.921Z,60.90
2019-03-13T01:06:00.752Z,61.00
2019-03-13T01:09:07.361Z,60.90
2019-03-13T01:12:11.719Z,60.90
2019-03-13T01:15:16.231Z,60.70
2019-03-13T01:18:20.577Z,60.80
2019-03-13T01:21:25.246Z,60.90
2019-03-13T01:24:29.663Z,61.00
2019-03-13T01:27:33.984Z,60.70
2019-03-13T01:30:50.992Z,60.50
2019-03-13T01:34:06.913Z,60.80
2019-03-13T01:37:13.070Z,60.00
2019-03-13T01:40:17.823Z,60.10
2019-03-13T01:43:22.226Z,60.40
2019-03-13T01:46:26.998Z,61.00
2019-03-13T01:49:31.625Z,60.70
2019-03-13T01:52:37.759Z,60.80
2019-03-13T01:55:42.158Z,60.30
2019-03-13T01:58:47.177Z,60.70
2019-03-13T02:01:51.557Z,60.80
2019-03-13T02:04:55.892Z,60.60
2019-03-13T02:08:00.225Z,61.00
2019-03-13T02:11:05.095Z,60.40
2019-03-13T02:14:09.845Z,61.00
2019-03-13T02:17:33.600Z,60.90
2019-03-13T02:20:39.886Z,61.00
2019-03-13T02:23:45.327Z,61.60
2019-03-13T02:26:49.816Z,61.70
2019-03-13T02:29:56.247Z,62.10
2019-03-13T02:33:00.610Z,62.20
2019-03-13T02:36:05.303Z,62.20
2019-03-13T02:39:11.122Z,62.30
2019-03-13T02:42:15.754Z,62.60
2019-03-13T02:45:20.120Z,63.00
2019-03-13T02:48:27.289Z,62.80
2019-03-13T02:51:31.752Z,62.80
2019-03-13T02:54:36.558Z,63.10
2019-03-13T02:57:40.955Z,63.30
2019-03-13T03:01:04.313Z,63.40
2019-03-13T03:04:10.925Z,63.30
2019-03-13T03:07:15.499Z,63.60
2019-03-13T03:10:20.257Z,63.80
2019-03-13T03:13:25.541Z,64.10
2019-03-13T03:16:29.877Z,64.00
2019-03-13T03:19:53.343Z,64.10
2019-03-13T03:22:59.356Z,64.00
2019-03-13T03:26:03.961Z,64.50
2019-03-13T03:29:09.424Z,65.00
2019-03-13T03:32:14.173Z,65.10
2019-03-13T03:35:18.896Z,65.40
2019-03-13T03:38:24.486Z,65.40
2019-03-13T03:41:32.988Z,65.70
2019-03-13T03:44:37.371Z,65.80
2019-03-13T03:47:41.789Z,66.00
2019-03-13T03:50:46.162Z,66.20
2019-03-13T03:53:50.909Z,66.20
2019-03-13T03:56:55.300Z,66.30
2019-03-13T03:59:59.721Z,66.40
2019-03-13T04:03:04.363Z,66.40
2019-03-13T04:06:08.926Z,66.50
2019-03-13T04:09:13.330Z,66.60
2019-03-13T04:12:17.745Z,66.50
2019-03-13T04:15:22.089Z,66.50
2019-03-13T04:18:26.467Z,66.30
2019-03-13T04:21:30.779Z,66.30
2019-03-13T04:24:35.125Z,66.30
2019-03-13T04:27:42.002Z,66.20
2019-03-13T04:30:48.198Z,66.30
2019-03-13T04:33:53.145Z,66.40
2019-03-13T04:36:57.526Z,66.50
2019-03-13T04:40:02.555Z,66.50
2019-03-13T04:43:07.283Z,66.80
2019-03-13T04:46:11.612Z,67.00
2019-03-13T04:49:15.934Z,67.10
2019-03-13T04:52:20.872Z,67.10
2019-03-13T04:55:27.790Z,67.00
2019-03-13T04:58:32.145Z,67.20
2019-03-13T05:01:36.465Z,67.00
2019-03-13T05:04:40.845Z,67.30
2019-03-13T05:07:45.245Z,67.30
2019-03-13T05:10:49.609Z,67.40
2019-03-13T05:13:59.439Z,67.60
2019-03-13T05:17:03.819Z,67.20
2019-03-13T05:20:09.609Z,67.80
2019-03-13T05:23:13.966Z,67.60
2019-03-13T05:26:18.663Z,67.60
2019-03-13T05:29:23.345Z,67.20
2019-03-13T05:32:28.771Z,67.40
2019-03-13T05:35:35.386Z,67.70
2019-03-13T05:38:39.697Z,67.40
2019-03-13T05:41:44.026Z,68.00
2019-03-13T05:44:48.710Z,68.20
2019-03-13T05:47:53.467Z,68.40
2019-03-13T05:50:58.366Z,68.60
2019-03-13T05:54:02.719Z,68.70
2019-03-13T05:57:07.064Z,68.80
2019-03-13T06:00:12.426Z,68.90
2019-03-13T06:03:17.158Z,68.90
2019-03-13T06:06:21.475Z,68.70
2019-03-13T06:09:25.834Z,68.60
2019-03-13T06:12:30.560Z,68.50
2019-03-13T06:15:34.889Z,68.10
2019-03-13T06:18:39.198Z,68.00
2019-03-13T06:21:43.583Z,68.60
2019-03-13T06:24:50.111Z,69.00
2019-03-13T06:27:54.834Z,69.30
2019-03-13T06:30:59.175Z,69.10
2019-03-13T06:34:03.959Z,69.00
2019-03-13T06:37:08.303Z,68.80
2019-03-13T06:40:12.731Z,68.60
2019-03-13T06:43:19.101Z,68.60
2019-03-13T06:46:23.384Z,68.60
2019-03-13T06:49:27.848Z,68.90
2019-03-13T06:52:32.453Z,69.00
2019-03-13T06:55:36.845Z,68.90
2019-03-13T06:59:03.126Z,68.60
2019-03-13T07:02:17.246Z,68.20
2019-03-13T07:05:26.791Z,67.80
2019-03-13T07:08:48.145Z,67.80
2019-03-13T07:12:06.824Z,67.60
2019-03-13T07:15:35.947Z,67.40
2019-03-13T07:18:50.888Z,67.20
2019-03-13T07:22:13.718Z,67.20
2019-03-13T07:25:39.049Z,67.30
2019-03-13T07:28:52.579Z,67.40
2019-03-13T07:32:18.216Z,67.60
2019-03-13T07:35:39.466Z,68.20
2019-03-13T07:38:59.288Z,70.30
2019-03-13T07:42:10.863Z,71.70
2019-03-13T07:45:31.860Z,72.50
2019-03-13T07:48:58.443Z,72.50
2019-03-13T07:52:27.603Z,72.20
2019-03-13T07:55:52.016Z,71.90
2019-03-13T07:59:18.162Z,71.40
2019-03-13T08:02:47.921Z,70.80
2019-03-13T08:06:10.079Z,70.60
2019-03-13T08:09:39.152Z,69.70
2019-03-13T08:13:09.786Z,66.90
2019-03-13T08:16:35.889Z,65.00
2019-03-13T08:19:58.433Z,64.50
2019-03-13T08:23:09.962Z,65.60
2019-03-13T08:26:22.282Z,67.00
2019-03-13T08:29:45.528Z,66.00
2019-03-13T08:33:11.808Z,64.80
2019-03-13T08:36:25.959Z,63.80
2019-03-13T08:39:49.208Z,63.00
2019-03-13T08:43:32.181Z,63.10
2019-03-13T08:46:54.795Z,62.10
2019-03-13T08:50:15.592Z,61.80
2019-03-13T08:53:29.822Z,60.30
2019-03-13T08:56:53.134Z,59.80
2019-03-13T09:00:15.863Z,59.10
2019-03-13T09:03:47.201Z,58.70
2019-03-13T09:07:09.031Z,58.50
2019-03-13T09:10:26.300Z,58.90
2019-03-13T09:13:39.371Z,60.10
2019-03-13T09:17:06.547Z,61.80
2019-03-13T09:20:39.214Z,63.50
2019-03-13T09:24:08.437Z,64.80
2019-03-13T09:27:30.284Z,66.70
2019-03-13T09:30:52.130Z,64.70
2019-03-13T09:34:03.416Z,63.60
2019-03-13T09:37:14.624Z,61.50
2019-03-13T09:40:41.069Z,58.90
2019-03-13T09:44:04.435Z,58.30
2019-03-13T09:47:21.456Z,58.40
2019-03-13T09:50:50.811Z,57.70
2019-03-13T09:54:20.032Z,57.60
2019-03-13T09:57:42.464Z,58.10
2019-03-13T10:00:56.984Z,58.60
2019-03-13T10:04:20.305Z,59.80
2019-03-13T10:07:49.612Z,60.80
2019-03-13T10:11:03.318Z,60.80
2019-03-13T10:14:29.495Z,60.90
2019-03-13T10:17:59.014Z,59.80
2019-03-13T10:21:25.470Z,59.20
2019-03-13T10:25:06.540Z,59.10
2019-03-13T10:28:30.209Z,59.70
2019-03-13T10:31:52.728Z,61.20
2019-03-13T10:35:12.620Z,61.90
2019-03-13T10:38:32.352Z,61.30
2019-03-13T10:42:07.709Z,58.60
2019-03-13T10:45:33.966Z,57.10
2019-03-13T10:49:07.726Z,56.10
2019-03-13T10:52:32.053Z,57.30
2019-03-13T10:56:01.996Z,57.60
2019-03-13T10:59:37.896Z,57.40
2019-03-13T11:03:01.151Z,58.00
2019-03-13T11:06:21.066Z,58.50
2019-03-13T11:09:45.474Z,57.10
2019-03-13T11:12:58.996Z,55.60
2019-03-13T11:16:24.126Z,55.20
2019-03-13T11:19:38.147Z,55.20
2019-03-13T11:23:00.111Z,56.50
2019-03-13T11:26:16.449Z,56.30
2019-03-13T11:29:32.587Z,56.30
2019-03-13T11:32:55.921Z,56.20
2019-03-13T11:36:07.668Z,55.60
2019-03-13T11:39:23.313Z,56.60
2019-03-13T11:42:37.422Z,56.30
2019-03-13T11:45:59.612Z,55.90
2019-03-13T11:49:26.142Z,55.60
2019-03-13T11:52:40.024Z,54.80
2019-03-13T11:56:15.487Z,55.40
2019-03-13T11:59:38.529Z,54.90
2019-03-13T12:03:01.910Z,55.80
2019-03-13T12:06:19.024Z,56.40
2019-03-13T12:09:34.929Z,56.40
2019-03-13T12:13:13.604Z,57.30
2019-03-13T12:16:33.525Z,57.70
2019-03-13T12:19:53.953Z,58.10
2019-03-13T12:23:08.733Z,58.50
2019-03-13T12:26:30.952Z,58.70
2019-03-13T12:29:53.242Z,58.00
2019-03-13T12:33:13.401Z,58.10
2019-03-13T12:36:42.177Z,58.10
2019-03-13T12:40:09.230Z,58.40
2019-03-13T12:43:29.574Z,59.30
2019-03-13T12:47:08.162Z,59.50
2019-03-13T12:50:41.868Z,61.00
2019-03-13T12:54:11.486Z,60.30
2019-03-13T12:57:30.685Z,60.30
2019-03-13T13:01:04.519Z,60.50
2019-03-13T13:04:21.166Z,60.20
2019-03-13T13:07:38.301Z,59.50
2019-03-13T13:11:08.715Z,59.00
2019-03-13T13:14:21.888Z,58.80
2019-03-13T13:17:34.678Z,58.80
2019-03-13T13:20:39.397Z,58.20
2019-03-13T13:23:44.114Z,57.90
2019-03-13T13:26:50.231Z,57.80
2019-03-13T13:29:54.518Z,57.20
2019-03-13T13:32:59.552Z,56.90
2019-03-13T13:36:04.412Z,56.70
2019-03-13T13:39:10.809Z,56.70
2019-03-13T13:42:15.593Z,56.80
2019-03-13T13:45:50.618Z,56.50
2019-03-13T13:48:54.949Z,56.90
2019-03-13T13:52:00.843Z,56.40
2019-03-13T13:55:05.574Z,56.50
2019-03-13T13:58:10.614Z,56.30
2019-03-13T14:01:15.877Z,56.40
2019-03-13T14:04:21.846Z,56.30
2019-03-13T14:07:26.260Z,55.90
2019-03-13T14:10:30.745Z,54.70
2019-03-13T14:13:36.957Z,55.50
2019-03-13T14:16:41.457Z,55.60
2019-03-13T14:19:45.821Z,55.70
2019-03-13T14:22:50.945Z,55.80
2019-03-13T14:25:55.357Z,56.10
2019-03-13T14:28:59.710Z,56.50
2019-03-13T14:32:04.388Z,56.70
2019-03-13T14:35:09.157Z,57.10
2019-03-13T14:38:13.855Z,56.50
2019-03-13T14:41:18.296Z,56.60
2019-03-13T14:44:24.569Z,56.30
2019-03-13T14:47:28.921Z,56.20
2019-03-13T14:50:36.192Z,56.20
2019-03-13T14:53:39.776Z,56.40
2019-03-13T14:56:44.124Z,56.40
2019-03-13T14:59:48.789Z,56.50
2019-03-13T15:02:53.786Z,56.50
2019-03-13T15:05:58.249Z,56.40
2019-03-13T15:09:02.655Z,56.30
2019-03-13T15:12:08.814Z,55.90
2019-03-13T15:15:14.897Z,56.50
2019-03-13T15:18:19.268Z,56.60
2019-03-13T15:21:23.982Z,56.80
2019-03-13T15:24:28.367Z,56.20
2019-03-13T15:27:33.007Z,56.50
2019-03-13T15:30:37.326Z,56.20
2019-03-13T15:33:41.676Z,56.20
2019-03-13T15:36:46.186Z,56.20
2019-03-13T15:39:50.887Z,56.30
2019-03-13T15:42:55.453Z,56.40
2019-03-13T15:46:00.218Z,56.40
2019-03-13T15:49:05.874Z,56.40
2019-03-13T15:52:12.291Z,56.20
2019-03-13T15:55:16.834Z,56.50
2019-03-13T15:58:21.166Z,56.60
2019-03-13T16:01:25.522Z,56.70
2019-03-13T16:04:31.513Z,56.60
2019-03-13T16:07:35.991Z,56.80
2019-03-13T16:10:46.102Z,56.90
2019-03-13T16:13:59.592Z,56.80
2019-03-13T16:17:08.324Z,56.90
2019-03-13T16:20:16.682Z,56.90
2019-03-13T16:23:21.103Z,57.00
2019-03-13T16:26:27.217Z,57.10
2019-03-13T16:29:32.240Z,57.20
2019-03-13T16:32:43.772Z,57.10
2019-03-13T16:35:48.664Z,57.10
2019-03-13T16:38:53.053Z,56.70
2019-03-13T16:41:57.912Z,57.10
2019-03-13T16:45:02.295Z,57.00
2019-03-13T16:48:07.695Z,57.00
2019-03-13T16:51:12.049Z,57.10
2019-03-13T16:54:16.393Z,56.90
2019-03-13T16:57:21.497Z,56.90
2019-03-13T17:00:26.260Z,57.00
2019-03-13T17:03:30.582Z,57.00
2019-03-13T17:06:35.025Z,56.80
2019-03-13T17:09:39.412Z,57.00
2019-03-13T17:12:43.833Z,57.10
2019-03-13T17:15:48.142Z,57.40
2019-03-13T17:18:52.533Z,57.50
2019-03-13T17:21:57.072Z,57.60
2019-03-13T17:25:01.398Z,57.60
2019-03-13T17:28:05.761Z,57.60
2019-03-13T17:31:10.094Z,57.70
2019-03-13T17:34:17.670Z,57.60
2019-03-13T17:37:22.025Z,57.60
2019-03-13T17:40:26.483Z,57.70
2019-03-13T17:43:39.229Z,57.80
2019-03-13T17:46:38.368Z,57.90
2019-03-13T17:49:42.658Z,57.90
2019-03-13T17:52:47.104Z,57.90
2019-03-13T17:55:51.473Z,57.90
2019-03-13T17:58:55.841Z,58.20
2019-03-13T18:02:00.203Z,58.10
2019-03-13T18:05:04.756Z,58.20
2019-03-13T18:08:09.115Z,58.30
2019-03-13T18:11:13.551Z,58.30
2019-03-13T18:14:18.022Z,58.40
2019-03-13T18:17:22.418Z,58.60
2019-03-13T18:20:26.907Z,58.60
2019-03-13T18:23:33.571Z,58.70
2019-03-13T18:26:37.952Z,58.90
2019-03-13T18:29:42.443Z,58.80
2019-03-13T18:32:47.002Z,58.80
2019-03-13T18:35:51.356Z,58.70
2019-03-13T18:38:55.766Z,59.40
2019-03-13T18:42:00.130Z,58.90
2019-03-13T18:45:05.107Z,59.00
2019-03-13T18:48:09.529Z,59.10
2019-03-13T18:51:13.909Z,59.40
2019-03-13T18:54:19.385Z,59.70
2019-03-13T18:57:23.791Z,60.00
2019-03-13T19:00:29.765Z,59.90
2019-03-13T19:03:34.207Z,60.00
2019-03-13T19:06:39.661Z,60.10
2019-03-13T19:09:43.997Z,60.20
2019-03-13T19:12:49.363Z,60.20
2019-03-13T19:15:53.816Z,60.20
2019-03-13T19:18:58.345Z,60.70
2019-03-13T19:22:02.670Z,60.10
2019-03-13T19:25:07.778Z,60.10
2019-03-13T19:28:13.696Z,60.10
2019-03-13T19:31:18.081Z,60.00
2019-03-13T19:34:22.775Z,60.00
2019-03-13T19:37:28.026Z,60.00
2019-03-13T19:40:32.556Z,60.10
2019-03-13T19:43:38.027Z,60.50
2019-03-13T19:46:42.564Z,60.60
2019-03-13T19:49:46.975Z,60.70
2019-03-13T19:52:51.381Z,60.80
2019-03-13T19:55:56.213Z,60.90
2019-03-13T19:59:00.643Z,61.70
2019-03-13T20:02:05.067Z,61.20
2019-03-13T20:05:10.333Z,61.30
2019-03-13T20:08:14.761Z,61.40
2019-03-13T20:11:19.209Z,61.40
2019-03-13T20:14:24.849Z,61.60
2019-03-13T20:17:29.190Z,61.50
2019-03-13T20:20:33.521Z,61.50
2019-03-13T20:23:37.899Z,61.60
2019-03-13T20:26:42.316Z,61.50
2019-03-13T20:29:46.681Z,61.40
2019-03-13T20:32:52.496Z,61.40
2019-03-13T20:35:56.909Z,61.50
2019-03-13T20:39:01.270Z,61.50
2019-03-13T20:42:05.640Z,61.50
2019-03-13T20:45:11.823Z,61.60
2019-03-13T20:48:16.243Z,61.80
2019-03-13T20:51:20.586Z,61.90
2019-03-13T20:54:24.965Z,62.00
2019-03-13T20:57:36.153Z,62.10
2019-03-13T21:00:40.581Z,62.00
2019-03-13T21:03:45.917Z,62.10
2019-03-13T21:06:52.685Z,62.20
2019-03-13T21:09:57.052Z,62.10
2019-03-13T21:13:01.375Z,62.20
2019-03-13T21:16:05.769Z,62.20
2019-03-13T21:19:15.056Z,62.20
2019-03-13T21:22:19.368Z,61.90
2019-03-13T21:25:23.824Z,62.30
2019-03-13T21:28:28.170Z,62.30
2019-03-13T21:31:33.373Z,62.30
2019-03-13T21:34:37.857Z,62.40
2019-03-13T21:37:42.744Z,62.40
2019-03-13T21:40:47.119Z,62.40
2019-03-13T21:43:51.893Z,62.30
2019-03-13T21:46:56.242Z,62.40
2019-03-13T21:50:00.989Z,62.50
2019-03-13T21:53:05.314Z,62.50
2019-03-13T21:56:09.646Z,62.50
2019-03-13T21:59:13.978Z,62.70
2019-03-13T22:02:18.338Z,62.60
2019-03-13T22:05:26.928Z,62.60
2019-03-13T22:08:31.546Z,62.60
2019-03-13T22:11:36.007Z,62.70
2019-03-13T22:14:40.330Z,62.80
2019-03-13T22:17:44.943Z,62.80
2019-03-13T22:20:49.700Z,62.80
2019-03-13T22:23:55.148Z,62.90
2019-03-13T22:27:00.986Z,62.90
2019-03-13T22:30:06.868Z,62.90
2019-03-13T22:33:11.212Z,62.90
2019-03-13T22:36:17.021Z,62.80
2019-03-13T22:39:21.770Z,62.80
2019-03-13T22:42:26.144Z,62.70
2019-03-13T22:45:30.479Z,62.50
2019-03-13T22:48:35.224Z,62.50
2019-03-13T22:51:39.539Z,62.30
2019-03-13T22:54:44.597Z,62.40
2019-03-13T22:57:49.073Z,62.40
2019-03-13T23:00:59.774Z,62.40
2019-03-13T23:04:05.900Z,62.50
2019-03-13T23:07:12.297Z,62.70
2019-03-13T23:10:28.130Z,62.90
2019-03-13T23:13:32.468Z,63.20
2019-03-13T23:16:37.761Z,63.30
2019-03-13T23:19:42.419Z,64.00
2019-03-13T23:22:46.777Z,63.50
2019-03-13T23:25:51.120Z,63.60
2019-03-13T23:28:55.512Z,63.70
2019-03-13T23:31:59.903Z,63.70
2019-03-13T23:35:04.609Z,63.90
2019-03-13T23:38:09.080Z,63.90
2019-03-13T23:41:13.489Z,64.00
2019-03-13T23:44:18.154Z,64.10
2019-03-13T23:47:22.870Z,64.20
2019-03-13T23:50:41.401Z,64.40
2019-03-13T23:53:45.732Z,64.40
2019-03-13T23:56:50.154Z,64.50
2019-03-13T23:59:54.431Z,64.60
